createdAt,value
2018-06-02T00:01:06.034Z,23.57
2018-06-02T00:03:35.206Z,22.73
2018-06-02T00:06:04.388Z,23.20
2018-06-02T00:08:33.568Z,21.30
2018-06-02T00:11:02.737Z,23.60
2018-06-02T00:13:31.904Z,27.33
2018-06-02T00:16:01.143Z,25.40
2018-06-02T00:18:30.268Z,26.10
2018-06-02T00:20:59.433Z,21.97
2018-06-02T00:23:28.603Z,20.20
2018-06-02T00:25:57.728Z,20.70
2018-06-02T00:28:26.840Z,20.30
2018-06-02T00:30:56.028Z,19.83
2018-06-02T00:33:25.159Z,20.67
2018-06-02T00:35:54.346Z,19.20
2018-06-02T00:38:23.552Z,20.90
2018-06-02T00:40:52.700Z,20.57
2018-06-02T00:43:21.884Z,20.87
2018-06-02T00:45:51.037Z,22.20
2018-06-02T00:48:20.152Z,20.80
2018-06-02T00:50:49.326Z,21.00
2018-06-02T00:53:18.494Z,25.90
2018-06-02T00:55:47.652Z,31.97
2018-06-02T00:58:16.806Z,23.70
2018-06-02T01:00:45.953Z,21.60
2018-06-02T01:03:15.562Z,20.60
2018-06-02T01:05:44.703Z,19.37
2018-06-02T01:08:13.830Z,23.63
2018-06-02T01:10:42.955Z,30.23
2018-06-02T01:13:12.143Z,31.80
2018-06-02T01:15:41.284Z,31.40
2018-06-02T01:18:10.454Z,31.80
2018-06-02T01:20:39.606Z,26.33
2018-06-02T01:23:08.757Z,27.73
2018-06-02T01:25:37.896Z,33.93
2018-06-02T01:28:07.080Z,31.37
2018-06-02T01:30:36.217Z,31.23
2018-06-02T01:33:05.348Z,31.17
2018-06-02T01:35:34.496Z,26.80
2018-06-02T01:38:03.612Z,28.40
2018-06-02T01:40:32.812Z,25.47
2018-06-02T01:43:01.962Z,30.90
2018-06-02T01:45:31.103Z,33.57
2018-06-02T01:48:00.262Z,31.43
2018-06-02T01:50:29.783Z,36.10
2018-06-02T01:52:58.952Z,39.10
2018-06-02T01:55:28.092Z,31.80
2018-06-02T01:57:57.285Z,27.83
2018-06-02T02:00:26.435Z,29.50
2018-06-02T02:02:55.572Z,34.50
2018-06-02T02:05:25.356Z,35.43
2018-06-02T02:07:54.538Z,33.47
2018-06-02T02:10:23.679Z,35.27
2018-06-02T02:12:52.838Z,30.93
2018-06-02T02:15:21.992Z,30.83
2018-06-02T02:17:51.114Z,32.80
2018-06-02T02:20:20.264Z,34.50
2018-06-02T02:22:49.404Z,26.80
2018-06-02T02:25:18.524Z,34.30
2018-06-02T02:27:47.637Z,27.50
2018-06-02T02:30:16.799Z,30.60
2018-06-02T02:32:45.966Z,26.17
2018-06-02T02:35:15.120Z,34.70
2018-06-02T02:37:44.259Z,34.53
2018-06-02T02:40:13.394Z,29.63
2018-06-02T02:42:42.568Z,37.10
2018-06-02T02:45:11.694Z,38.07
2018-06-02T02:47:40.845Z,38.13
2018-06-02T02:50:10.005Z,31.93
2018-06-02T02:52:39.149Z,27.23
2018-06-02T02:55:08.260Z,33.30
2018-06-02T02:57:37.465Z,38.77
2018-06-02T03:00:06.649Z,32.20
2018-06-02T03:02:35.777Z,32.30
2018-06-02T03:05:04.963Z,29.57
2018-06-02T03:07:34.256Z,31.63
2018-06-02T03:10:03.373Z,35.77
2018-06-02T03:12:32.536Z,34.90
2018-06-02T03:15:01.658Z,34.50
2018-06-02T03:17:30.819Z,31.10
2018-06-02T03:20:00.031Z,36.73
2018-06-02T03:22:29.108Z,32.10
2018-06-02T03:24:58.227Z,30.93
2018-06-02T03:27:27.385Z,28.30
2018-06-02T03:29:56.552Z,29.60
2018-06-02T03:32:25.696Z,33.83
2018-06-02T03:34:54.859Z,27.67
2018-06-02T03:37:24.012Z,35.83
2018-06-02T03:39:53.188Z,26.80
2018-06-02T03:42:22.313Z,22.70
2018-06-02T03:44:51.462Z,21.60
2018-06-02T03:47:20.611Z,25.10
2018-06-02T03:49:49.751Z,24.10
2018-06-02T03:52:18.906Z,24.90
2018-06-02T03:54:48.053Z,22.33
2018-06-02T03:57:17.241Z,22.40
2018-06-02T03:59:46.416Z,25.73
2018-06-02T04:02:15.572Z,24.57
2018-06-02T04:04:44.685Z,21.70
2018-06-02T04:07:13.868Z,21.00
2018-06-02T04:09:43.001Z,19.63
2018-06-02T04:12:12.140Z,18.87
2018-06-02T04:14:41.320Z,18.77
2018-06-02T04:17:10.456Z,19.77
2018-06-02T04:19:39.592Z,19.40
2018-06-02T04:22:08.739Z,18.63
2018-06-02T04:24:37.883Z,18.50
2018-06-02T04:27:07.047Z,17.73
2018-06-02T04:29:36.168Z,18.03
2018-06-02T04:32:05.299Z,16.30
2018-06-02T04:34:34.445Z,16.90
2018-06-02T04:37:03.595Z,16.00
2018-06-02T04:39:32.733Z,16.50
2018-06-02T04:42:01.872Z,17.63
2018-06-02T04:44:31.015Z,18.80
2018-06-02T04:47:00.152Z,18.57
2018-06-02T04:49:29.333Z,19.20
2018-06-02T04:51:58.499Z,17.33
2018-06-02T04:54:27.647Z,17.77
2018-06-02T04:56:56.847Z,18.20
2018-06-02T04:59:25.968Z,15.60
2018-06-02T05:01:55.148Z,14.70
2018-06-02T05:04:24.293Z,14.67
2018-06-02T05:06:53.439Z,13.23
2018-06-02T05:09:22.947Z,14.03
2018-06-02T05:11:52.252Z,13.43
2018-06-02T05:14:21.399Z,13.83
2018-06-02T05:16:50.547Z,13.13
2018-06-02T05:19:19.716Z,12.33
2018-06-02T05:21:48.899Z,15.17
2018-06-02T05:24:18.084Z,15.73
2018-06-02T05:26:47.248Z,18.60
2018-06-02T05:29:16.459Z,35.00
2018-06-02T05:31:45.575Z,32.70
2018-06-02T05:34:14.740Z,17.50
2018-06-02T05:36:43.868Z,11.87
2018-06-02T05:39:13.048Z,12.40
2018-06-02T05:41:42.167Z,12.70
2018-06-02T05:44:11.332Z,19.07
2018-06-02T05:46:40.488Z,22.43
2018-06-02T05:49:09.668Z,26.60
2018-06-02T05:51:38.812Z,25.00
2018-06-02T05:54:07.967Z,25.40
2018-06-02T05:56:37.175Z,25.00
2018-06-02T05:59:06.320Z,20.33
2018-06-02T06:01:35.457Z,19.80
2018-06-02T06:04:04.632Z,19.23
2018-06-02T06:06:33.772Z,19.20
2018-06-02T06:09:02.892Z,15.83
2018-06-02T06:11:32.074Z,19.73
2018-06-02T06:14:01.218Z,21.20
2018-06-02T06:16:30.344Z,20.50
2018-06-02T06:18:59.516Z,15.03
2018-06-02T06:21:28.645Z,14.10
2018-06-02T06:23:57.779Z,18.40
2018-06-02T06:26:26.919Z,18.73
2018-06-02T06:28:56.052Z,20.33
2018-06-02T06:31:25.215Z,19.20
2018-06-02T06:33:54.329Z,19.43
2018-06-02T06:36:23.512Z,18.40
2018-06-02T06:38:52.621Z,17.20
2018-06-02T06:41:21.774Z,18.67
2018-06-02T06:43:50.952Z,18.70
2018-06-02T06:46:20.096Z,15.77
2018-06-02T06:48:49.241Z,17.50
2018-06-02T06:51:18.415Z,19.40
2018-06-02T06:53:47.599Z,16.80
2018-06-02T06:56:16.770Z,18.27
2018-06-02T06:58:45.943Z,16.77
2018-06-02T07:01:15.074Z,16.07
2018-06-02T07:03:44.261Z,14.57
2018-06-02T07:06:13.372Z,14.37
2018-06-02T07:08:42.516Z,14.97
2018-06-02T07:11:11.682Z,16.70
2018-06-02T07:13:41.223Z,14.20
2018-06-02T07:16:10.360Z,12.67
2018-06-02T07:18:39.472Z,12.57
2018-06-02T07:21:08.644Z,13.97
2018-06-02T07:23:37.776Z,12.83
2018-06-02T07:26:06.929Z,13.20
2018-06-02T07:28:36.071Z,13.50
2018-06-02T07:31:05.250Z,13.70
2018-06-02T07:33:34.379Z,13.07
2018-06-02T07:36:03.567Z,13.63
2018-06-02T07:38:32.713Z,11.07
2018-06-02T07:41:01.826Z,10.17
2018-06-02T07:43:30.979Z,9.93
2018-06-02T07:46:00.121Z,10.90
2018-06-02T07:48:29.268Z,12.80
2018-06-02T07:50:58.805Z,17.97
2018-06-02T07:53:28.002Z,13.80
2018-06-02T07:55:57.142Z,10.23
2018-06-02T07:58:26.290Z,10.00
2018-06-02T08:00:55.508Z,10.80
2018-06-02T08:03:24.638Z,9.50
2018-06-02T08:05:53.772Z,9.63
2018-06-02T08:08:22.922Z,9.53
2018-06-02T08:10:52.094Z,11.57
2018-06-02T08:13:21.279Z,9.60
2018-06-02T08:15:50.475Z,8.53
2018-06-02T08:18:19.626Z,10.03
2018-06-02T08:20:48.752Z,10.43
2018-06-02T08:23:17.945Z,9.27
2018-06-02T08:25:47.067Z,9.80
2018-06-02T08:28:16.279Z,9.43
2018-06-02T08:30:45.395Z,10.90
2018-06-02T08:33:14.539Z,9.30
2018-06-02T08:35:43.680Z,11.20
2018-06-02T08:38:12.803Z,12.23
2018-06-02T08:40:41.949Z,11.10
2018-06-02T08:43:11.065Z,10.40
2018-06-02T08:45:40.196Z,10.40
2018-06-02T08:48:09.331Z,10.43
2018-06-02T08:50:38.480Z,9.50
2018-06-02T08:53:07.656Z,8.40
2018-06-02T08:55:36.792Z,8.70
2018-06-02T08:58:05.925Z,9.60
2018-06-02T09:00:35.051Z,8.97
2018-06-02T09:03:04.161Z,9.37
2018-06-02T09:05:33.332Z,10.10
2018-06-02T09:08:02.538Z,9.20
2018-06-02T09:10:32.716Z,8.60
2018-06-02T09:13:01.881Z,9.20
2018-06-02T09:15:31.052Z,9.90
2018-06-02T09:18:00.214Z,9.10
2018-06-02T09:20:29.356Z,10.00
2018-06-02T09:22:58.464Z,8.57
2018-06-02T09:25:27.650Z,9.60
2018-06-02T09:27:56.864Z,10.00
2018-06-02T09:30:25.975Z,10.47
2018-06-02T09:32:55.131Z,9.60
2018-06-02T09:35:24.240Z,8.50
2018-06-02T09:37:53.352Z,9.00
2018-06-02T09:40:22.520Z,9.70
2018-06-02T09:42:51.640Z,9.20
2018-06-02T09:45:20.790Z,8.40
2018-06-02T09:47:49.981Z,9.60
2018-06-02T09:50:19.120Z,8.37
2018-06-02T09:52:48.259Z,9.80
2018-06-02T09:55:17.819Z,9.10
2018-06-02T09:57:46.935Z,8.00
2018-06-02T10:00:16.045Z,8.03
2018-06-02T10:02:45.357Z,7.97
2018-06-02T10:05:14.500Z,8.80
2018-06-02T10:07:43.643Z,10.33
2018-06-02T10:10:12.807Z,11.90
2018-06-02T10:12:41.948Z,11.23
2018-06-02T10:15:11.065Z,9.13
2018-06-02T10:17:40.241Z,10.03
2018-06-02T10:20:09.387Z,13.90
2018-06-02T10:22:38.534Z,17.30
2018-06-02T10:25:07.716Z,12.67
2018-06-02T10:27:36.913Z,13.27
2018-06-02T10:30:06.055Z,12.43
2018-06-02T10:32:35.208Z,11.87
2018-06-02T10:35:04.359Z,10.27
2018-06-02T10:37:33.517Z,10.53
2018-06-02T10:40:02.709Z,10.50
2018-06-02T10:42:31.825Z,10.70
2018-06-02T10:45:00.944Z,10.90
2018-06-02T10:47:30.111Z,10.50
2018-06-02T10:49:59.229Z,9.20
2018-06-02T10:52:28.382Z,8.50
2018-06-02T10:54:57.531Z,7.60
2018-06-02T10:57:26.686Z,12.40
2018-06-02T10:59:55.824Z,9.00
2018-06-02T11:02:24.959Z,8.10
2018-06-02T11:04:54.076Z,8.20
2018-06-02T11:07:23.265Z,8.70
2018-06-02T11:09:52.380Z,8.37
2018-06-02T11:12:21.500Z,9.00
2018-06-02T11:14:50.764Z,10.90
2018-06-02T11:17:19.871Z,9.83
2018-06-02T11:19:49.061Z,9.97
2018-06-02T11:22:18.208Z,11.53
2018-06-02T11:24:47.324Z,12.47
2018-06-02T11:27:16.482Z,13.30
2018-06-02T11:29:45.608Z,11.20
2018-06-02T11:32:14.928Z,10.70
2018-06-02T11:34:44.093Z,10.93
2018-06-02T11:37:13.239Z,10.17
2018-06-02T11:39:42.414Z,10.30
2018-06-02T11:42:11.594Z,12.40
2018-06-02T11:44:40.797Z,9.10
2018-06-02T11:47:09.900Z,9.57
2018-06-02T11:49:39.044Z,9.10
2018-06-02T11:52:08.448Z,10.50
2018-06-02T11:54:37.580Z,9.60
2018-06-02T11:57:06.725Z,8.53
2018-06-02T11:59:35.900Z,7.73
2018-06-02T12:02:05.061Z,7.93
2018-06-02T12:04:34.178Z,10.20
2018-06-02T12:07:03.321Z,8.20
2018-06-02T12:09:32.477Z,7.73
2018-06-02T12:12:01.648Z,8.20
2018-06-02T12:14:30.781Z,9.03
2018-06-02T12:16:59.917Z,8.27
2018-06-02T12:19:29.091Z,8.30
2018-06-02T12:21:58.211Z,8.83
2018-06-02T12:24:27.358Z,9.03
2018-06-02T12:26:56.665Z,10.10
2018-06-02T12:29:25.789Z,10.43
2018-06-02T12:31:54.999Z,9.87
2018-06-02T12:34:24.163Z,10.00
2018-06-02T12:36:53.287Z,8.10
2018-06-02T12:39:22.480Z,9.63
2018-06-02T12:41:51.624Z,10.53
2018-06-02T12:44:20.784Z,9.77
2018-06-02T12:46:49.900Z,7.80
2018-06-02T12:49:19.087Z,8.97
2018-06-02T12:51:48.224Z,9.47
2018-06-02T12:54:17.364Z,8.67
2018-06-02T12:56:46.499Z,9.67
2018-06-02T12:59:15.693Z,8.37
2018-06-02T13:01:44.813Z,8.20
2018-06-02T13:04:14.109Z,7.50
2018-06-02T13:06:43.243Z,7.93
2018-06-02T13:09:12.419Z,9.17
2018-06-02T13:11:41.579Z,9.03
2018-06-02T13:14:10.693Z,9.07
2018-06-02T13:16:39.813Z,8.63
2018-06-02T13:19:09.947Z,8.80
2018-06-02T13:21:39.089Z,8.17
2018-06-02T13:24:08.225Z,7.90
2018-06-02T13:26:37.450Z,7.70
2018-06-02T13:29:06.777Z,7.30
2018-06-02T13:31:35.895Z,8.00
2018-06-02T13:34:05.090Z,8.40
2018-06-02T13:36:34.208Z,8.43
2018-06-02T13:39:03.335Z,8.10
2018-06-02T13:41:32.494Z,7.20
2018-06-02T13:44:01.655Z,7.87
2018-06-02T13:46:30.791Z,7.60
2018-06-02T13:48:59.912Z,9.83
2018-06-02T13:51:29.117Z,8.23
2018-06-02T13:53:58.267Z,8.63
2018-06-02T13:56:27.393Z,7.13
2018-06-02T13:58:56.592Z,7.57
2018-06-02T14:01:25.724Z,7.30
2018-06-02T14:03:54.870Z,7.13
2018-06-02T14:06:24.031Z,7.50
2018-06-02T14:08:53.173Z,7.47
2018-06-02T14:11:22.322Z,7.30
2018-06-02T14:13:51.493Z,7.13
2018-06-02T14:16:20.628Z,8.03
2018-06-02T14:18:49.809Z,7.90
2018-06-02T14:21:18.939Z,7.47
2018-06-02T14:23:48.130Z,7.80
2018-06-02T14:26:17.256Z,8.90
2018-06-02T14:28:46.387Z,8.10
2018-06-02T14:31:15.561Z,8.77
2018-06-02T14:33:44.707Z,8.47
2018-06-02T14:36:13.841Z,8.27
2018-06-02T14:38:42.987Z,8.27
2018-06-02T14:41:12.120Z,11.00
2018-06-02T14:43:41.287Z,9.37
2018-06-02T14:46:10.489Z,9.50
2018-06-02T14:48:39.640Z,8.90
2018-06-02T14:51:08.759Z,8.77
2018-06-02T14:53:38.006Z,7.87
2018-06-02T14:56:07.160Z,9.00
2018-06-02T14:58:36.276Z,7.37
2018-06-02T15:01:05.417Z,7.63
2018-06-02T15:03:34.536Z,7.63
2018-06-02T15:06:03.646Z,8.00
2018-06-02T15:08:32.797Z,7.70
2018-06-02T15:11:01.935Z,7.93
2018-06-02T15:13:31.093Z,8.70
2018-06-02T15:16:00.264Z,8.00
2018-06-02T15:18:29.426Z,8.57
2018-06-02T15:20:58.541Z,7.97
2018-06-02T15:23:27.703Z,7.60
2018-06-02T15:25:56.829Z,8.83
2018-06-02T15:28:25.973Z,7.27
2018-06-02T15:30:55.136Z,7.90
2018-06-02T15:33:24.285Z,8.23
2018-06-02T15:35:53.421Z,8.43
2018-06-02T15:38:22.565Z,8.83
2018-06-02T15:40:51.745Z,8.20
2018-06-02T15:43:20.890Z,7.77
2018-06-02T15:45:50.011Z,7.40
2018-06-02T15:48:19.214Z,7.40
2018-06-02T15:50:48.275Z,7.90
2018-06-02T15:53:17.399Z,7.47
2018-06-02T15:55:46.625Z,8.33
2018-06-02T15:58:15.777Z,9.27
2018-06-02T16:00:44.897Z,8.60
2018-06-02T16:03:14.055Z,8.27
2018-06-02T16:05:43.174Z,10.03
2018-06-02T16:08:13.216Z,11.03
2018-06-02T16:10:42.389Z,11.20
2018-06-02T16:13:11.501Z,11.00
2018-06-02T16:15:40.640Z,10.93
2018-06-02T16:18:09.804Z,10.27
2018-06-02T16:20:38.948Z,9.13
2018-06-02T16:23:08.157Z,8.87
2018-06-02T16:25:37.275Z,8.27
2018-06-02T16:28:07.014Z,8.30
2018-06-02T16:30:36.477Z,7.17
2018-06-02T16:33:05.624Z,8.70
2018-06-02T16:35:34.792Z,7.03
2018-06-02T16:38:03.939Z,7.70
2018-06-02T16:40:33.061Z,7.33
2018-06-02T16:43:02.198Z,8.47
2018-06-02T16:45:31.309Z,7.90
2018-06-02T16:48:00.521Z,7.57
2018-06-02T16:50:29.689Z,7.80
2018-06-02T16:52:58.812Z,7.83
2018-06-02T16:55:27.952Z,7.40
2018-06-02T16:57:57.101Z,7.87
2018-06-02T17:00:26.241Z,7.50
2018-06-02T17:02:55.395Z,8.60
2018-06-02T17:05:24.565Z,8.03
2018-06-02T17:07:53.721Z,8.60
2018-06-02T17:10:22.884Z,10.70
2018-06-02T17:12:52.096Z,11.13
2018-06-02T17:15:21.255Z,11.70
2018-06-02T17:17:50.393Z,13.00
2018-06-02T17:20:19.568Z,12.00
2018-06-02T17:22:48.743Z,11.77
2018-06-02T17:25:17.896Z,11.03
2018-06-02T17:27:47.138Z,11.33
2018-06-02T17:30:16.247Z,12.17
2018-06-02T17:32:45.394Z,11.77
2018-06-02T17:35:14.540Z,13.07
2018-06-02T17:37:43.691Z,12.57
2018-06-02T17:40:12.829Z,11.50
2018-06-02T17:42:42.012Z,11.40
2018-06-02T17:45:11.663Z,10.57
2018-06-02T17:47:40.858Z,10.97
2018-06-02T17:50:10.023Z,10.70
2018-06-02T17:52:39.138Z,10.80
2018-06-02T17:55:08.312Z,10.37
2018-06-02T17:57:37.446Z,9.23
2018-06-02T18:00:06.601Z,9.80
2018-06-02T18:02:35.768Z,9.80
2018-06-02T18:05:04.920Z,9.30
2018-06-02T18:07:34.129Z,9.33
2018-06-02T18:10:03.351Z,8.90
2018-06-02T18:12:32.467Z,9.60
2018-06-02T18:15:01.581Z,9.37
2018-06-02T18:17:30.748Z,10.17
2018-06-02T18:19:59.899Z,9.63
2018-06-02T18:22:29.064Z,9.87
2018-06-02T18:24:58.209Z,9.53
2018-06-02T18:27:27.336Z,9.90
2018-06-02T18:29:56.448Z,10.20
2018-06-02T18:32:25.605Z,9.97
2018-06-02T18:34:54.741Z,10.20
2018-06-02T18:37:23.988Z,10.37
2018-06-02T18:39:53.126Z,11.03
2018-06-02T18:42:22.260Z,12.23
2018-06-02T18:44:51.395Z,11.57
2018-06-02T18:47:20.539Z,12.00
2018-06-02T18:49:49.652Z,12.83
2018-06-02T18:52:18.829Z,14.37
2018-06-02T18:54:47.982Z,12.77
2018-06-02T18:57:17.111Z,14.33
2018-06-02T18:59:46.244Z,15.40
2018-06-02T19:02:15.392Z,13.13
2018-06-02T19:04:44.565Z,12.70
2018-06-02T19:07:13.710Z,15.60
2018-06-02T19:09:42.856Z,17.73
2018-06-02T19:12:12.037Z,18.40
2018-06-02T19:14:41.177Z,16.37
2018-06-02T19:17:10.308Z,20.80
2018-06-02T19:19:39.468Z,17.47
2018-06-02T19:22:08.589Z,22.00
2018-06-02T19:24:37.740Z,21.13
2018-06-02T19:27:06.901Z,23.33
2018-06-02T19:29:36.073Z,21.10
2018-06-02T19:32:05.204Z,21.53
2018-06-02T19:34:34.381Z,19.97
2018-06-02T19:37:03.545Z,18.70
2018-06-02T19:39:32.679Z,16.57
2018-06-02T19:42:01.816Z,16.50
2018-06-02T19:44:30.997Z,17.30
2018-06-02T19:47:00.110Z,16.03
2018-06-02T19:49:29.257Z,14.53
2018-06-02T19:51:58.399Z,14.33
2018-06-02T19:54:27.524Z,15.53
2018-06-02T19:56:56.671Z,13.67
2018-06-02T19:59:25.817Z,13.73
2018-06-02T20:01:54.968Z,14.80
2018-06-02T20:04:24.102Z,13.80
2018-06-02T20:06:53.272Z,15.67
2018-06-02T20:09:22.389Z,12.40
2018-06-02T20:11:51.552Z,15.80
2018-06-02T20:14:20.729Z,19.20
2018-06-02T20:16:49.856Z,22.97
2018-06-02T20:19:19.983Z,37.57
2018-06-02T20:21:49.122Z,35.90
2018-06-02T20:24:18.243Z,22.93
2018-06-02T20:26:47.380Z,22.83
2018-06-02T20:29:16.561Z,27.53
2018-06-02T20:31:45.706Z,24.93
2018-06-02T20:34:14.855Z,21.60
2018-06-02T20:36:44.013Z,31.67
2018-06-02T20:39:13.146Z,21.23
2018-06-02T20:41:42.275Z,34.30
2018-06-02T20:44:11.444Z,34.93
2018-06-02T20:46:40.555Z,41.23
2018-06-02T20:49:09.696Z,36.03
2018-06-02T20:51:38.877Z,61.33
2018-06-02T20:54:08.033Z,52.27
2018-06-02T20:56:37.159Z,51.00
2018-06-02T20:59:06.293Z,39.30
2018-06-02T21:01:35.431Z,40.63
2018-06-02T21:04:04.595Z,45.27
2018-06-02T21:06:33.803Z,42.93
2018-06-02T21:09:02.948Z,32.83
2018-06-02T21:11:32.094Z,33.27
2018-06-02T21:14:01.269Z,28.13
2018-06-02T21:16:30.407Z,24.90
2018-06-02T21:18:59.552Z,22.33
2018-06-02T21:21:28.730Z,27.00
2018-06-02T21:23:57.871Z,23.93
2018-06-02T21:26:27.055Z,26.10
2018-06-02T21:28:56.195Z,26.77
2018-06-02T21:31:25.313Z,25.07
2018-06-02T21:33:54.504Z,19.00
2018-06-02T21:36:23.650Z,19.50
2018-06-02T21:38:52.817Z,17.57
2018-06-02T21:41:21.933Z,16.83
2018-06-02T21:43:51.059Z,17.33
2018-06-02T21:46:20.208Z,15.83
2018-06-02T21:48:49.349Z,16.30
2018-06-02T21:51:18.485Z,16.43
2018-06-02T21:53:47.628Z,16.90
2018-06-02T21:56:16.768Z,16.73
2018-06-02T21:58:45.921Z,17.80
2018-06-02T22:01:15.066Z,17.40
2018-06-02T22:03:44.187Z,18.87
2018-06-02T22:06:13.343Z,18.27
2018-06-02T22:08:42.486Z,16.20
2018-06-02T22:11:11.645Z,14.97
2018-06-02T22:13:40.963Z,14.93
2018-06-02T22:16:10.102Z,13.93
2018-06-02T22:18:39.232Z,13.90
2018-06-02T22:21:08.372Z,14.30
2018-06-02T22:23:37.548Z,14.40
2018-06-02T22:26:06.673Z,13.83
2018-06-02T22:28:35.791Z,14.30
2018-06-02T22:31:04.952Z,13.47
2018-06-02T22:33:34.065Z,12.67
2018-06-02T22:36:03.188Z,14.27
2018-06-02T22:38:32.366Z,15.40
2018-06-02T22:41:01.516Z,15.67
2018-06-02T22:43:30.637Z,17.13
2018-06-02T22:45:59.808Z,17.23
2018-06-02T22:48:28.976Z,17.00
2018-06-02T22:50:58.102Z,17.50
2018-06-02T22:53:27.224Z,15.93
2018-06-02T22:55:56.390Z,17.63
2018-06-02T22:58:25.528Z,19.43
2018-06-02T23:00:54.669Z,17.70
2018-06-02T23:03:23.838Z,17.07
2018-06-02T23:05:52.996Z,19.00
2018-06-02T23:08:22.120Z,17.40
2018-06-02T23:10:51.256Z,15.83
2018-06-02T23:13:21.061Z,17.17
2018-06-02T23:15:50.187Z,16.67
2018-06-02T23:18:19.344Z,15.70
2018-06-02T23:20:48.504Z,14.63
2018-06-02T23:23:17.641Z,14.80
2018-06-02T23:25:46.787Z,17.60
2018-06-02T23:28:15.949Z,17.17
2018-06-02T23:30:45.133Z,17.70
2018-06-02T23:33:14.323Z,16.43
2018-06-02T23:35:43.435Z,15.83
2018-06-02T23:38:12.555Z,15.33
2018-06-02T23:40:41.777Z,16.07
2018-06-02T23:43:10.924Z,16.67
2018-06-02T23:45:40.033Z,18.00
2018-06-02T23:48:09.204Z,15.60
2018-06-02T23:50:38.345Z,15.60
2018-06-02T23:53:07.475Z,15.30
2018-06-02T23:55:36.676Z,16.03
2018-06-02T23:58:05.797Z,16.23
